Meteo Giornale » Osservazioni meteo Stati Uniti (USA) » Caldwell Essex

ore: 05:53 - Osservazioni Meteo Caldwell Essex
Lat. 40° 52' N Lon. 74° 16' W Alt. 52 metri s.l.m.

molto_nuvoloso America/New_York

23 °C

Molto Nuvoloso

Temp. 24 Ore

16 °C

26 °C

Sud-Est

7.4 Km/h

Dew point 21 °C

Umidità 88 %

Visibilità  10 Km

Il sole sorge alle ore 06:43

Il sole tramonta alle ore 18:55

Data e Ora Cielo e Fenomeni T °C DP °C Um. % Pres. hPa Vis. km Vento km/h
Oggi h: 05:53 molto_nuvoloso Molto Nuvoloso 23 21 88 1020 10 SE 7.4
Oggi h: 05:37 molto_nuvoloso Molto Nuvoloso 23 21 88 1021 10 N 5.5
Oggi h: 05:13 molto_nuvoloso Molto Nuvoloso 23 21 88 1021 10 N 5.5
Oggi h: 04:53 molto_nuvoloso Molto Nuvoloso 23 21 88 1021 10 SE 7.4
Oggi h: 03:53 coperto Coperto 23 21 88 1021 11 N 0
Oggi h: 03:50 foschia Foschia 23 21 88 1021 10 N 0
Oggi h: 03:35 foschia Foschia 22 21 94 1021 10 N 0
Oggi h: 02:53 coperto_pioggia Pioggia Debole Foschia 23 21 88 1022 6 N 0
Oggi h: 02:44 coperto_pioggia Pioggia Debole Foschia 23 21 88 1022 6 N 0
Oggi h: 01:53 coperto Coperto 23 21 88 1022 11 N 0
Oggi h: 01:28 coperto Coperto 23 21 88 1023 14 N 5.5
Oggi h: 00:53 coperto Coperto 23 20 83 1023 10 N 5.5
Oggi h: 00:51 coperto Coperto 23 20 83 1023 10 N 5.5
Ieri h: 23:53 coperto Coperto 22 20 88 1024 10 E 7.4
Ieri h: 23:31 coperto Coperto 22 20 88 1024 10 E 7.4
Ieri h: 22:53 coperto Coperto 22 19 83 1024 10 E/NE 7.4
Ieri h: 22:42 coperto Coperto 22 19 83 1024 10 N 0
Ieri h: 22:35 coperto Coperto 22 19 83 1024 10 N 0
Ieri h: 20:53 coperto Coperto 22 18 78 1025 10 N 0
Ieri h: 19:53 sereno Sereno 22 17 73 1025 10 N 0
Ieri h: 18:53 sereno Sereno 24 17 64 1025 10 N 0
Ieri h: 17:53 sereno Sereno 25 16 57 1025 10 SE 14.8
Ieri h: 16:53 sereno Sereno 26 13 44 1025 10 S/SE 14.8
Ieri h: 15:53 sereno Sereno 26 13 44 1025 10 S/SE 16.7
Ieri h: 14:53 sereno Sereno 26 13 44 1026 10 S/SE 18.5
Ieri h: 13:53 nuvoloso Nuvoloso 26 13 44 1026 10 S 13
Ieri h: 12:53 molto_nuvoloso Molto Nuvoloso 24 15 57 1027 10 SE 13
Ieri h: 11:53 coperto Coperto 23 15 60 1028 10 E/SE 13
Ieri h: 09:53 sereno Sereno 22 15 64 1028 10 E 13
Ieri h: 08:53 poco_nuvoloso Poco Nuvoloso 19 15 77 1028 10 NE 9.3
Ieri h: 07:53 coperto Coperto 17 14 82 1028 10 N 0
Ieri h: 06:53 coperto Coperto 16 13 82 1028 10 N 0